sensor_id;sensor_type;location;lat;lon;timestamp;temperature;humidity
5476;DHT22;2760;50.000;9.194;2023-04-03T00:00:44;4.80;99.90
5476;DHT22;2760;50.000;9.194;2023-04-03T00:03:11;4.80;99.90
5476;DHT22;2760;50.000;9.194;2023-04-03T00:05:38;4.70;99.90
5476;DHT22;2760;50.000;9.194;2023-04-03T00:08:06;4.80;99.90
5476;DHT22;2760;50.000;9.194;2023-04-03T00:10:36;6.50;99.90
5476;DHT22;2760;50.000;9.194;2023-04-03T00:13:04;4.80;99.90
5476;DHT22;2760;50.000;9.194;2023-04-03T00:15:31;4.80;99.90
5476;DHT22;2760;50.000;9.194;2023-04-03T00:17:58;4.80;99.90
5476;DHT22;2760;50.000;9.194;2023-04-03T00:20:25;7.20;99.90
5476;DHT22;2760;50.000;9.194;2023-04-03T00:22:53;4.70;99.90
5476;DHT22;2760;50.000;9.194;2023-04-03T00:25:20;7.40;99.90
5476;DHT22;2760;50.000;9.194;2023-04-03T00:27:48;4.70;99.90
5476;DHT22;2760;50.000;9.194;2023-04-03T00:30:18;4.90;99.90
5476;DHT22;2760;50.000;9.194;2023-04-03T00:32:47;4.70;99.90
5476;DHT22;2760;50.000;9.194;2023-04-03T00:35:14;4.80;99.90
5476;DHT22;2760;50.000;9.194;2023-04-03T00:37:41;4.80;99.90
5476;DHT22;2760;50.000;9.194;2023-04-03T00:40:09;7.10;99.90
5476;DHT22;2760;50.000;9.194;2023-04-03T00:42:37;4.70;99.90
5476;DHT22;2760;50.000;9.194;2023-04-03T00:45:28;3.60;99.90
5476;DHT22;2760;50.000;9.194;2023-04-03T00:47:55;4.60;99.90
5476;DHT22;2760;50.000;9.194;2023-04-03T00:50:25;7.30;99.90
5476;DHT22;2760;50.000;9.194;2023-04-03T00:52:54;4.60;99.90
5476;DHT22;2760;50.000;9.194;2023-04-03T00:55:22;4.60;99.90
5476;DHT22;2760;50.000;9.194;2023-04-03T00:57:50;4.60;99.90
5476;DHT22;2760;50.000;9.194;2023-04-03T01:00:20;4.50;99.90
5476;DHT22;2760;50.000;9.194;2023-04-03T01:02:49;4.60;99.90
5476;DHT22;2760;50.000;9.194;2023-04-03T01:05:18;6.80;99.90
5476;DHT22;2760;50.000;9.194;2023-04-03T01:07:46;4.70;99.90
5476;DHT22;2760;50.000;9.194;2023-04-03T01:10:15;4.80;99.90
5476;DHT22;2760;50.000;9.194;2023-04-03T01:12:46;5.30;99.90
5476;DHT22;2760;50.000;9.194;2023-04-03T01:15:16;6.70;99.90
5476;DHT22;2760;50.000;9.194;2023-04-03T01:17:45;4.80;99.90
5476;DHT22;2760;50.000;9.194;2023-04-03T01:20:42;4.80;99.90
5476;DHT22;2760;50.000;9.194;2023-04-03T01:23:22;4.80;99.90
5476;DHT22;2760;50.000;9.194;2023-04-03T01:25:52;6.10;99.90
5476;DHT22;2760;50.000;9.194;2023-04-03T01:28:23;5.80;99.90
5476;DHT22;2760;50.000;9.194;2023-04-03T01:30:55;4.10;99.90
5476;DHT22;2760;50.000;9.194;2023-04-03T01:33:25;4.80;99.90
5476;DHT22;2760;50.000;9.194;2023-04-03T01:35:52;4.60;99.90
5476;DHT22;2760;50.000;9.194;2023-04-03T01:38:19;4.70;99.90
5476;DHT22;2760;50.000;9.194;2023-04-03T01:40:47;4.60;99.90
5476;DHT22;2760;50.000;9.194;2023-04-03T01:43:14;4.60;99.90
5476;DHT22;2760;50.000;9.194;2023-04-03T01:45:42;7.20;99.90
5476;DHT22;2760;50.000;9.194;2023-04-03T01:48:10;4.60;99.90
5476;DHT22;2760;50.000;9.194;2023-04-03T01:50:39;7.00;99.90
5476;DHT22;2760;50.000;9.194;2023-04-03T01:53:06;4.50;99.90
5476;DHT22;2760;50.000;9.194;2023-04-03T01:55:33;4.40;99.90
5476;DHT22;2760;50.000;9.194;2023-04-03T01:58:00;4.50;99.90
5476;DHT22;2760;50.000;9.194;2023-04-03T02:00:27;4.50;99.90
5476;DHT22;2760;50.000;9.194;2023-04-03T02:02:54;4.30;99.90
5476;DHT22;2760;50.000;9.194;2023-04-03T02:05:25;4.40;99.90
5476;DHT22;2760;50.000;9.194;2023-04-03T02:07:53;4.40;99.90
5476;DHT22;2760;50.000;9.194;2023-04-03T02:10:21;4.40;99.90
5476;DHT22;2760;50.000;9.194;2023-04-03T02:12:48;4.40;99.90
5476;DHT22;2760;50.000;9.194;2023-04-03T02:15:15;4.40;99.90
5476;DHT22;2760;50.000;9.194;2023-04-03T02:17:42;4.30;99.90
5476;DHT22;2760;50.000;9.194;2023-04-03T02:20:09;4.30;99.90
5476;DHT22;2760;50.000;9.194;2023-04-03T02:22:37;4.30;99.90
5476;DHT22;2760;50.000;9.194;2023-04-03T02:25:06;4.40;99.90
5476;DHT22;2760;50.000;9.194;2023-04-03T02:27:33;4.30;99.90
5476;DHT22;2760;50.000;9.194;2023-04-03T02:30:01;4.30;99.90
5476;DHT22;2760;50.000;9.194;2023-04-03T02:32:28;4.10;99.90
5476;DHT22;2760;50.000;9.194;2023-04-03T02:34:56;4.20;99.90
5476;DHT22;2760;50.000;9.194;2023-04-03T02:37:23;4.20;99.90
5476;DHT22;2760;50.000;9.194;2023-04-03T02:42:21;4.20;99.90
5476;DHT22;2760;50.000;9.194;2023-04-03T02:44:48;4.20;99.90
5476;DHT22;2760;50.000;9.194;2023-04-03T02:47:15;4.20;99.90
5476;DHT22;2760;50.000;9.194;2023-04-03T02:49:42;4.20;99.90
5476;DHT22;2760;50.000;9.194;2023-04-03T02:52:10;4.20;99.90
5476;DHT22;2760;50.000;9.194;2023-04-03T02:54:38;4.30;99.90
5476;DHT22;2760;50.000;9.194;2023-04-03T02:57:08;4.30;99.90
5476;DHT22;2760;50.000;9.194;2023-04-03T02:59:37;4.30;99.90
5476;DHT22;2760;50.000;9.194;2023-04-03T03:02:06;4.30;99.90
5476;DHT22;2760;50.000;9.194;2023-04-03T03:04:34;4.20;99.90
5476;DHT22;2760;50.000;9.194;2023-04-03T03:07:01;4.30;99.90
5476;DHT22;2760;50.000;9.194;2023-04-03T03:09:28;4.30;99.90
5476;DHT22;2760;50.000;9.194;2023-04-03T03:11:55;6.70;99.90
5476;DHT22;2760;50.000;9.194;2023-04-03T03:14:22;4.20;99.90
5476;DHT22;2760;50.000;9.194;2023-04-03T03:16:51;4.70;99.90
5476;DHT22;2760;50.000;9.194;2023-04-03T03:19:18;4.20;99.90
5476;DHT22;2760;50.000;9.194;2023-04-03T03:21:46;4.20;99.90
5476;DHT22;2760;50.000;9.194;2023-04-03T03:24:13;4.10;99.90
5476;DHT22;2760;50.000;9.194;2023-04-03T03:26:41;4.10;99.90
5476;DHT22;2760;50.000;9.194;2023-04-03T03:29:08;4.10;99.90
5476;DHT22;2760;50.000;9.194;2023-04-03T03:31:36;4.10;99.90
5476;DHT22;2760;50.000;9.194;2023-04-03T03:34:04;4.10;99.90
5476;DHT22;2760;50.000;9.194;2023-04-03T03:36:32;4.20;99.90
5476;DHT22;2760;50.000;9.194;2023-04-03T03:39:00;4.20;99.90
5476;DHT22;2760;50.000;9.194;2023-04-03T03:41:27;4.20;99.90
5476;DHT22;2760;50.000;9.194;2023-04-03T03:46:22;4.30;99.90
5476;DHT22;2760;50.000;9.194;2023-04-03T03:48:49;4.40;99.90
5476;DHT22;2760;50.000;9.194;2023-04-03T03:51:18;4.40;99.90
5476;DHT22;2760;50.000;9.194;2023-04-03T03:53:45;4.30;99.90
5476;DHT22;2760;50.000;9.194;2023-04-03T03:56:17;6.60;99.90
5476;DHT22;2760;50.000;9.194;2023-04-03T03:58:45;4.20;99.90
5476;DHT22;2760;50.000;9.194;2023-04-03T04:01:13;4.20;99.90
5476;DHT22;2760;50.000;9.194;2023-04-03T04:03:45;4.20;99.90
5476;DHT22;2760;50.000;9.194;2023-04-03T04:06:18;4.20;99.90
5476;DHT22;2760;50.000;9.194;2023-04-03T04:08:45;6.60;99.90
5476;DHT22;2760;50.000;9.194;2023-04-03T04:11:14;4.20;99.90
5476;DHT22;2760;50.000;9.194;2023-04-03T04:13:42;5.10;99.90
5476;DHT22;2760;50.000;9.194;2023-04-03T04:16:11;4.20;99.90
5476;DHT22;2760;50.000;9.194;2023-04-03T04:18:38;4.30;99.90
5476;DHT22;2760;50.000;9.194;2023-04-03T04:21:06;4.30;99.90
5476;DHT22;2760;50.000;9.194;2023-04-03T04:23:34;4.30;99.90
5476;DHT22;2760;50.000;9.194;2023-04-03T04:28:32;4.20;99.90
5476;DHT22;2760;50.000;9.194;2023-04-03T04:33:29;4.20;99.90
5476;DHT22;2760;50.000;9.194;2023-04-03T04:40:57;4.20;99.90
5476;DHT22;2760;50.000;9.194;2023-04-03T04:46:01;4.10;99.90
5476;DHT22;2760;50.000;9.194;2023-04-03T04:48:30;4.20;99.90
5476;DHT22;2760;50.000;9.194;2023-04-03T04:50:57;4.10;99.90
5476;DHT22;2760;50.000;9.194;2023-04-03T04:53:24;4.10;99.90
5476;DHT22;2760;50.000;9.194;2023-04-03T04:55:52;3.70;99.90
5476;DHT22;2760;50.000;9.194;2023-04-03T04:58:21;4.00;99.90
5476;DHT22;2760;50.000;9.194;2023-04-03T05:00:49;4.80;99.90
5476;DHT22;2760;50.000;9.194;2023-04-03T05:03:16;4.00;99.90
5476;DHT22;2760;50.000;9.194;2023-04-03T05:05:44;6.00;99.90
5476;DHT22;2760;50.000;9.194;2023-04-03T05:08:11;4.00;99.90
5476;DHT22;2760;50.000;9.194;2023-04-03T05:10:40;3.90;99.90
5476;DHT22;2760;50.000;9.194;2023-04-03T05:13:10;6.30;99.90
5476;DHT22;2760;50.000;9.194;2023-04-03T05:15:39;4.30;99.90
5476;DHT22;2760;50.000;9.194;2023-04-03T05:18:07;4.30;99.90
5476;DHT22;2760;50.000;9.194;2023-04-03T05:20:34;3.80;99.90
5476;DHT22;2760;50.000;9.194;2023-04-03T05:23:02;3.80;99.90
5476;DHT22;2760;50.000;9.194;2023-04-03T05:25:32;3.80;99.90
5476;DHT22;2760;50.000;9.194;2023-04-03T05:27:59;3.70;99.90
5476;DHT22;2760;50.000;9.194;2023-04-03T05:30:26;3.70;99.90
5476;DHT22;2760;50.000;9.194;2023-04-03T05:32:54;3.80;99.90
5476;DHT22;2760;50.000;9.194;2023-04-03T05:35:32;3.80;99.90
5476;DHT22;2760;50.000;9.194;2023-04-03T05:38:02;3.90;99.90
5476;DHT22;2760;50.000;9.194;2023-04-03T05:40:31;3.90;99.90
5476;DHT22;2760;50.000;9.194;2023-04-03T05:42:58;4.00;99.90
5476;DHT22;2760;50.000;9.194;2023-04-03T05:45:29;4.10;99.90
5476;DHT22;2760;50.000;9.194;2023-04-03T05:47:58;4.20;99.90
5476;DHT22;2760;50.000;9.194;2023-04-03T05:52:57;4.30;99.90
5476;DHT22;2760;50.000;9.194;2023-04-03T05:55:26;4.40;99.90
5476;DHT22;2760;50.000;9.194;2023-04-03T05:57:53;4.40;99.90
5476;DHT22;2760;50.000;9.194;2023-04-03T06:00:21;4.50;99.90
5476;DHT22;2760;50.000;9.194;2023-04-03T06:02:59;7.80;99.90
5476;DHT22;2760;50.000;9.194;2023-04-03T06:05:26;4.70;99.90
5476;DHT22;2760;50.000;9.194;2023-04-03T06:07:54;4.70;99.90
5476;DHT22;2760;50.000;9.194;2023-04-03T06:10:21;4.90;99.90
5476;DHT22;2760;50.000;9.194;2023-04-03T06:12:49;5.00;99.90
5476;DHT22;2760;50.000;9.194;2023-04-03T06:15:17;5.40;99.90
5476;DHT22;2760;50.000;9.194;2023-04-03T06:17:43;5.20;99.90
5476;DHT22;2760;50.000;9.194;2023-04-03T06:20:13;5.30;99.90
5476;DHT22;2760;50.000;9.194;2023-04-03T06:22:40;5.40;99.90
5476;DHT22;2760;50.000;9.194;2023-04-03T06:25:08;5.30;99.90
5476;DHT22;2760;50.000;9.194;2023-04-03T06:27:36;6.00;99.90
5476;DHT22;2760;50.000;9.194;2023-04-03T06:30:04;6.30;99.90
5476;DHT22;2760;50.000;9.194;2023-04-03T06:32:32;6.10;99.90
5476;DHT22;2760;50.000;9.194;2023-04-03T06:34:59;8.40;99.90
5476;DHT22;2760;50.000;9.194;2023-04-03T06:37:27;8.50;99.90
5476;DHT22;2760;50.000;9.194;2023-04-03T06:39:56;6.30;99.90
5476;DHT22;2760;50.000;9.194;2023-04-03T06:42:23;8.00;99.90
5476;DHT22;2760;50.000;9.194;2023-04-03T06:44:59;6.90;99.90
5476;DHT22;2760;50.000;9.194;2023-04-03T06:47:28;6.80;99.90
5476;DHT22;2760;50.000;9.194;2023-04-03T06:49:55;8.70;99.90
5476;DHT22;2760;50.000;9.194;2023-04-03T06:52:23;6.80;99.90
5476;DHT22;2760;50.000;9.194;2023-04-03T06:54:51;6.80;99.90
5476;DHT22;2760;50.000;9.194;2023-04-03T06:57:22;7.20;99.90
5476;DHT22;2760;50.000;9.194;2023-04-03T06:59:49;7.10;99.90
5476;DHT22;2760;50.000;9.194;2023-04-03T07:02:17;8.80;99.90
5476;DHT22;2760;50.000;9.194;2023-04-03T07:04:44;9.00;99.80
5476;DHT22;2760;50.000;9.194;2023-04-03T07:07:11;7.50;99.00
5476;DHT22;2760;50.000;9.194;2023-04-03T07:09:38;7.10;99.30
5476;DHT22;2760;50.000;9.194;2023-04-03T07:12:07;7.70;99.20
5476;DHT22;2760;50.000;9.194;2023-04-03T07:14:34;9.90;99.40
5476;DHT22;2760;50.000;9.194;2023-04-03T07:17:01;7.70;98.90
5476;DHT22;2760;50.000;9.194;2023-04-03T07:19:28;7.90;98.10
5476;DHT22;2760;50.000;9.194;2023-04-03T07:21:56;8.00;97.90
5476;DHT22;2760;50.000;9.194;2023-04-03T07:24:23;7.90;97.60
5476;DHT22;2760;50.000;9.194;2023-04-03T07:26:50;8.90;97.80
5476;DHT22;2760;50.000;9.194;2023-04-03T07:29:19;10.10;97.60
5476;DHT22;2760;50.000;9.194;2023-04-03T07:31:47;7.40;97.80
5476;DHT22;2760;50.000;9.194;2023-04-03T07:34:14;7.90;97.50
5476;DHT22;2760;50.000;9.194;2023-04-03T07:36:41;9.30;98.50
5476;DHT22;2760;50.000;9.194;2023-04-03T07:39:08;7.80;97.20
5476;DHT22;2760;50.000;9.194;2023-04-03T07:41:36;8.00;96.60
5476;DHT22;2760;50.000;9.194;2023-04-03T07:44:03;9.10;96.90
5476;DHT22;2760;50.000;9.194;2023-04-03T07:46:32;8.10;96.40
5476;DHT22;2760;50.000;9.194;2023-04-03T07:48:59;8.40;95.70
5476;DHT22;2760;50.000;9.194;2023-04-03T07:51:27;8.20;95.20
5476;DHT22;2760;50.000;9.194;2023-04-03T07:53:55;10.30;96.40
5476;DHT22;2760;50.000;9.194;2023-04-03T07:56:23;9.80;95.70
5476;DHT22;2760;50.000;9.194;2023-04-03T07:58:50;8.90;94.60
5476;DHT22;2760;50.000;9.194;2023-04-03T08:01:17;10.30;95.10
5476;DHT22;2760;50.000;9.194;2023-04-03T08:03:46;10.80;94.10
5476;DHT22;2760;50.000;9.194;2023-04-03T08:06:13;9.60;94.20
5476;DHT22;2760;50.000;9.194;2023-04-03T08:08:40;11.30;93.50
5476;DHT22;2760;50.000;9.194;2023-04-03T08:11:09;9.80;93.70
5476;DHT22;2760;50.000;9.194;2023-04-03T08:13:36;9.40;93.90
5476;DHT22;2760;50.000;9.194;2023-04-03T08:16:10;11.90;94.90
5476;DHT22;2760;50.000;9.194;2023-04-03T08:18:38;9.60;94.00
5476;DHT22;2760;50.000;9.194;2023-04-03T08:21:08;9.90;93.70
5476;DHT22;2760;50.000;9.194;2023-04-03T08:23:35;9.30;94.00
5476;DHT22;2760;50.000;9.194;2023-04-03T08:26:11;9.40;93.60
5476;DHT22;2760;50.000;9.194;2023-04-03T08:28:38;9.50;93.00
5476;DHT22;2760;50.000;9.194;2023-04-03T08:31:07;11.80;93.80
5476;DHT22;2760;50.000;9.194;2023-04-03T08:33:36;12.10;94.00
5476;DHT22;2760;50.000;9.194;2023-04-03T08:36:04;11.80;93.50
5476;DHT22;2760;50.000;9.194;2023-04-03T08:38:33;10.00;93.10
5476;DHT22;2760;50.000;9.194;2023-04-03T08:41:12;12.30;93.90
5476;DHT22;2760;50.000;9.194;2023-04-03T08:43:55;11.90;92.00
5476;DHT22;2760;50.000;9.194;2023-04-03T08:46:33;11.00;90.90
5476;DHT22;2760;50.000;9.194;2023-04-03T08:49:04;11.30;92.60
5476;DHT22;2760;50.000;9.194;2023-04-03T08:51:38;10.40;92.10
5476;DHT22;2760;50.000;9.194;2023-04-03T08:54:21;9.40;92.80
5476;DHT22;2760;50.000;9.194;2023-04-03T08:56:51;8.90;93.10
5476;DHT22;2760;50.000;9.194;2023-04-03T08:59:26;10.70;94.70
5476;DHT22;2760;50.000;9.194;2023-04-03T09:01:54;10.10;92.80
5476;DHT22;2760;50.000;9.194;2023-04-03T09:04:22;11.20;93.50
5476;DHT22;2760;50.000;9.194;2023-04-03T09:06:54;8.70;93.10
5476;DHT22;2760;50.000;9.194;2023-04-03T09:09:31;8.30;94.50
5476;DHT22;2760;50.000;9.194;2023-04-03T09:12:06;9.00;95.10
5476;DHT22;2760;50.000;9.194;2023-04-03T09:14:39;8.30;93.60
5476;DHT22;2760;50.000;9.194;2023-04-03T09:17:13;10.20;94.30
5476;DHT22;2760;50.000;9.194;2023-04-03T09:19:49;8.50;94.30
5476;DHT22;2760;50.000;9.194;2023-04-03T09:22:20;8.60;94.20
5476;DHT22;2760;50.000;9.194;2023-04-03T09:24:55;10.50;94.50
5476;DHT22;2760;50.000;9.194;2023-04-03T09:27:24;8.30;92.70
5476;DHT22;2760;50.000;9.194;2023-04-03T09:29:53;9.10;93.20
5476;DHT22;2760;50.000;9.194;2023-04-03T09:32:27;7.80;90.80
5476;DHT22;2760;50.000;9.194;2023-04-03T09:34:58;12.60;92.70
5476;DHT22;2760;50.000;9.194;2023-04-03T09:37:40;10.20;90.50
5476;DHT22;2760;50.000;9.194;2023-04-03T09:40:34;10.40;88.80
5476;DHT22;2760;50.000;9.194;2023-04-03T09:43:20;10.80;87.60
5476;DHT22;2760;50.000;9.194;2023-04-03T09:45:48;13.20;88.50
5476;DHT22;2760;50.000;9.194;2023-04-03T09:48:19;12.10;87.60
5476;DHT22;2760;50.000;9.194;2023-04-03T09:51:01;10.40;85.20
5476;DHT22;2760;50.000;9.194;2023-04-03T09:53:34;12.50;88.60
5476;DHT22;2760;50.000;9.194;2023-04-03T09:56:19;11.00;85.80
5476;DHT22;2760;50.000;9.194;2023-04-03T09:58:49;13.10;86.70
5476;DHT22;2760;50.000;9.194;2023-04-03T10:01:29;11.30;87.30
5476;DHT22;2760;50.000;9.194;2023-04-03T10:04:11;12.20;87.60
5476;DHT22;2760;50.000;9.194;2023-04-03T10:06:40;13.70;88.50
5476;DHT22;2760;50.000;9.194;2023-04-03T10:09:17;11.30;83.70
5476;DHT22;2760;50.000;9.194;2023-04-03T10:12:06;10.70;85.50
5476;DHT22;2760;50.000;9.194;2023-04-03T10:14:36;9.90;87.30
5476;DHT22;2760;50.000;9.194;2023-04-03T10:17:14;11.90;90.40
5476;DHT22;2760;50.000;9.194;2023-04-03T10:19:48;9.70;89.60
5476;DHT22;2760;50.000;9.194;2023-04-03T10:22:21;10.30;86.50
5476;DHT22;2760;50.000;9.194;2023-04-03T10:25:00;12.70;88.90
5476;DHT22;2760;50.000;9.194;2023-04-03T10:27:39;10.70;83.00
5476;DHT22;2760;50.000;9.194;2023-04-03T10:30:23;12.90;88.00
5476;DHT22;2760;50.000;9.194;2023-04-03T10:33:05;11.10;86.90
5476;DHT22;2760;50.000;9.194;2023-04-03T10:35:44;12.90;86.90
5476;DHT22;2760;50.000;9.194;2023-04-03T10:38:20;12.10;88.90
5476;DHT22;2760;50.000;9.194;2023-04-03T10:40:55;11.50;90.00
5476;DHT22;2760;50.000;9.194;2023-04-03T10:43:31;11.40;89.20
5476;DHT22;2760;50.000;9.194;2023-04-03T10:46:03;10.50;88.00
5476;DHT22;2760;50.000;9.194;2023-04-03T10:48:43;11.40;87.50
5476;DHT22;2760;50.000;9.194;2023-04-03T10:51:24;11.20;85.90
5476;DHT22;2760;50.000;9.194;2023-04-03T10:53:56;12.00;83.70
5476;DHT22;2760;50.000;9.194;2023-04-03T10:56:32;12.80;83.60
5476;DHT22;2760;50.000;9.194;2023-04-03T10:59:13;12.00;82.80
5476;DHT22;2760;50.000;9.194;2023-04-03T11:01:44;12.30;81.40
5476;DHT22;2760;50.000;9.194;2023-04-03T11:04:13;11.00;80.40
5476;DHT22;2760;50.000;9.194;2023-04-03T11:06:45;13.10;81.20
5476;DHT22;2760;50.000;9.194;2023-04-03T11:09:21;11.80;80.60
5476;DHT22;2760;50.000;9.194;2023-04-03T11:11:53;13.20;81.80
5476;DHT22;2760;50.000;9.194;2023-04-03T11:14:26;12.20;80.40
5476;DHT22;2760;50.000;9.194;2023-04-03T11:17:02;13.20;78.10
5476;DHT22;2760;50.000;9.194;2023-04-03T11:19:35;11.30;78.30
5476;DHT22;2760;50.000;9.194;2023-04-03T11:22:09;13.20;81.30
5476;DHT22;2760;50.000;9.194;2023-04-03T11:24:41;12.40;79.80
5476;DHT22;2760;50.000;9.194;2023-04-03T11:27:15;12.20;79.30
5476;DHT22;2760;50.000;9.194;2023-04-03T11:29:46;11.40;76.80
5476;DHT22;2760;50.000;9.194;2023-04-03T11:32:31;10.80;78.30
5476;DHT22;2760;50.000;9.194;2023-04-03T11:35:01;10.80;78.00
5476;DHT22;2760;50.000;9.194;2023-04-03T11:37:33;13.90;79.30
5476;DHT22;2760;50.000;9.194;2023-04-03T11:40:04;11.60;76.50
5476;DHT22;2760;50.000;9.194;2023-04-03T11:42:36;10.90;77.50
5476;DHT22;2760;50.000;9.194;2023-04-03T11:45:25;11.60;76.70
5476;DHT22;2760;50.000;9.194;2023-04-03T11:47:56;12.60;77.20
5476;DHT22;2760;50.000;9.194;2023-04-03T11:50:44;12.10;79.10
5476;DHT22;2760;50.000;9.194;2023-04-03T11:53:44;12.10;77.00
5476;DHT22;2760;50.000;9.194;2023-04-03T11:56:29;13.20;78.80
5476;DHT22;2760;50.000;9.194;2023-04-03T11:59:23;12.50;76.30
5476;DHT22;2760;50.000;9.194;2023-04-03T12:01:52;10.80;74.60
5476;DHT22;2760;50.000;9.194;2023-04-03T12:04:21;13.40;81.80
5476;DHT22;2760;50.000;9.194;2023-04-03T12:07:13;13.40;77.50
5476;DHT22;2760;50.000;9.194;2023-04-03T12:10:14;11.70;75.50
5476;DHT22;2760;50.000;9.194;2023-04-03T12:12:42;10.80;75.90
5476;DHT22;2760;50.000;9.194;2023-04-03T12:15:38;12.90;77.10
5476;DHT22;2760;50.000;9.194;2023-04-03T12:21:19;12.10;76.90
5476;DHT22;2760;50.000;9.194;2023-04-03T12:24:22;13.50;77.90
5476;DHT22;2760;50.000;9.194;2023-04-03T12:27:01;12.50;76.00
5476;DHT22;2760;50.000;9.194;2023-04-03T12:29:34;13.80;73.50
5476;DHT22;2760;50.000;9.194;2023-04-03T12:32:11;14.60;75.30
5476;DHT22;2760;50.000;9.194;2023-04-03T12:35:05;14.00;74.10
5476;DHT22;2760;50.000;9.194;2023-04-03T12:37:54;10.10;72.10
5476;DHT22;2760;50.000;9.194;2023-04-03T12:40:26;12.40;74.30
5476;DHT22;2760;50.000;9.194;2023-04-03T12:43:29;12.50;74.40
5476;DHT22;2760;50.000;9.194;2023-04-03T12:46:07;13.00;74.00
5476;DHT22;2760;50.000;9.194;2023-04-03T12:48:39;13.00;78.30
5476;DHT22;2760;50.000;9.194;2023-04-03T12:51:14;12.40;75.40
5476;DHT22;2760;50.000;9.194;2023-04-03T12:53:44;12.30;75.30
5476;DHT22;2760;50.000;9.194;2023-04-03T12:56:25;14.50;78.10
5476;DHT22;2760;50.000;9.194;2023-04-03T12:58:54;12.00;78.50
5476;DHT22;2760;50.000;9.194;2023-04-03T13:01:24;12.60;77.10
5476;DHT22;2760;50.000;9.194;2023-04-03T13:03:54;14.20;78.20
5476;DHT22;2760;50.000;9.194;2023-04-03T13:06:23;13.50;75.30
5476;DHT22;2760;50.000;9.194;2023-04-03T13:08:53;15.30;81.80
5476;DHT22;2760;50.000;9.194;2023-04-03T13:11:23;13.50;81.00
5476;DHT22;2760;50.000;9.194;2023-04-03T13:13:56;13.40;79.40
5476;DHT22;2760;50.000;9.194;2023-04-03T13:16:23;14.20;75.70
5476;DHT22;2760;50.000;9.194;2023-04-03T13:18:52;12.40;75.00
5476;DHT22;2760;50.000;9.194;2023-04-03T13:21:21;10.80;73.90
5476;DHT22;2760;50.000;9.194;2023-04-03T13:23:53;11.70;75.60
5476;DHT22;2760;50.000;9.194;2023-04-03T13:26:24;13.90;77.70
5476;DHT22;2760;50.000;9.194;2023-04-03T13:28:53;13.90;75.90
5476;DHT22;2760;50.000;9.194;2023-04-03T13:31:25;12.50;75.50
5476;DHT22;2760;50.000;9.194;2023-04-03T13:33:56;13.60;75.80
5476;DHT22;2760;50.000;9.194;2023-04-03T13:36:27;13.80;76.00
5476;DHT22;2760;50.000;9.194;2023-04-03T13:39:01;12.00;73.70
5476;DHT22;2760;50.000;9.194;2023-04-03T13:41:31;13.90;74.20
5476;DHT22;2760;50.000;9.194;2023-04-03T13:44:33;14.00;76.00
5476;DHT22;2760;50.000;9.194;2023-04-03T13:47:15;10.70;71.90
5476;DHT22;2760;50.000;9.194;2023-04-03T13:49:44;14.50;76.30
5476;DHT22;2760;50.000;9.194;2023-04-03T13:52:22;13.60;73.60
5476;DHT22;2760;50.000;9.194;2023-04-03T13:54:55;14.10;76.50
5476;DHT22;2760;50.000;9.194;2023-04-03T13:57:24;13.80;78.10
5476;DHT22;2760;50.000;9.194;2023-04-03T13:59:51;11.70;74.70
5476;DHT22;2760;50.000;9.194;2023-04-03T14:02:21;12.50;75.70
5476;DHT22;2760;50.000;9.194;2023-04-03T14:04:52;13.30;77.20
5476;DHT22;2760;50.000;9.194;2023-04-03T14:07:22;13.40;76.60
5476;DHT22;2760;50.000;9.194;2023-04-03T14:09:49;12.60;76.20
5476;DHT22;2760;50.000;9.194;2023-04-03T14:12:24;12.60;76.80
5476;DHT22;2760;50.000;9.194;2023-04-03T14:14:52;12.40;77.80
5476;DHT22;2760;50.000;9.194;2023-04-03T14:17:22;12.00;75.90
5476;DHT22;2760;50.000;9.194;2023-04-03T14:19:51;11.50;76.50
5476;DHT22;2760;50.000;9.194;2023-04-03T14:22:21;12.10;76.40
5476;DHT22;2760;50.000;9.194;2023-04-03T14:24:49;13.10;74.90
5476;DHT22;2760;50.000;9.194;2023-04-03T14:27:22;12.60;74.90
5476;DHT22;2760;50.000;9.194;2023-04-03T14:29:51;12.00;74.10
5476;DHT22;2760;50.000;9.194;2023-04-03T14:32:20;13.70;75.10
5476;DHT22;2760;50.000;9.194;2023-04-03T14:34:48;9.70;72.30
5476;DHT22;2760;50.000;9.194;2023-04-03T14:37:18;11.40;72.60
5476;DHT22;2760;50.000;9.194;2023-04-03T14:39:46;12.60;74.20
5476;DHT22;2760;50.000;9.194;2023-04-03T14:42:15;13.30;77.40
5476;DHT22;2760;50.000;9.194;2023-04-03T14:44:44;13.70;76.40
5476;DHT22;2760;50.000;9.194;2023-04-03T14:47:12;10.80;74.00
5476;DHT22;2760;50.000;9.194;2023-04-03T14:49:40;11.00;75.50
5476;DHT22;2760;50.000;9.194;2023-04-03T14:52:18;12.60;74.20
5476;DHT22;2760;50.000;9.194;2023-04-03T14:54:45;12.10;75.70
5476;DHT22;2760;50.000;9.194;2023-04-03T14:57:14;11.40;74.80
5476;DHT22;2760;50.000;9.194;2023-04-03T14:59:42;12.60;77.00
5476;DHT22;2760;50.000;9.194;2023-04-03T15:02:25;11.00;74.90
5476;DHT22;2760;50.000;9.194;2023-04-03T15:04:52;11.50;76.20
5476;DHT22;2760;50.000;9.194;2023-04-03T15:07:19;10.60;77.20
5476;DHT22;2760;50.000;9.194;2023-04-03T15:09:47;10.00;76.60
5476;DHT22;2760;50.000;9.194;2023-04-03T15:12:13;10.30;76.40
5476;DHT22;2760;50.000;9.194;2023-04-03T15:14:40;12.20;78.20
5476;DHT22;2760;50.000;9.194;2023-04-03T15:17:13;10.50;75.60
5476;DHT22;2760;50.000;9.194;2023-04-03T15:19:43;11.50;78.10
5476;DHT22;2760;50.000;9.194;2023-04-03T15:22:13;12.50;78.40
5476;DHT22;2760;50.000;9.194;2023-04-03T15:24:41;11.30;78.60
5476;DHT22;2760;50.000;9.194;2023-04-03T15:27:08;11.50;76.80
5476;DHT22;2760;50.000;9.194;2023-04-03T15:29:36;10.20;77.10
5476;DHT22;2760;50.000;9.194;2023-04-03T15:32:04;12.00;80.70
5476;DHT22;2760;50.000;9.194;2023-04-03T15:34:30;9.80;76.70
5476;DHT22;2760;50.000;9.194;2023-04-03T15:36:59;9.70;76.70
5476;DHT22;2760;50.000;9.194;2023-04-03T15:39:26;11.50;78.00
5476;DHT22;2760;50.000;9.194;2023-04-03T15:41:53;9.90;76.10
5476;DHT22;2760;50.000;9.194;2023-04-03T15:44:21;11.40;75.60
5476;DHT22;2760;50.000;9.194;2023-04-03T15:46:48;10.50;75.10
5476;DHT22;2760;50.000;9.194;2023-04-03T15:49:17;11.20;76.50
5476;DHT22;2760;50.000;9.194;2023-04-03T15:51:45;9.80;75.90
5476;DHT22;2760;50.000;9.194;2023-04-03T15:54:13;11.30;75.30
5476;DHT22;2760;50.000;9.194;2023-04-03T15:56:40;11.70;76.90
5476;DHT22;2760;50.000;9.194;2023-04-03T15:59:07;10.50;76.60
5476;DHT22;2760;50.000;9.194;2023-04-03T16:01:34;9.60;75.60
5476;DHT22;2760;50.000;9.194;2023-04-03T16:04:02;9.50;75.40
5476;DHT22;2760;50.000;9.194;2023-04-03T16:06:30;9.50;76.20
5476;DHT22;2760;50.000;9.194;2023-04-03T16:08:59;11.50;78.30
5476;DHT22;2760;50.000;9.194;2023-04-03T16:11:28;9.40;77.20
5476;DHT22;2760;50.000;9.194;2023-04-03T16:13:55;9.20;78.20
5476;DHT22;2760;50.000;9.194;2023-04-03T16:16:23;9.50;79.70
5476;DHT22;2760;50.000;9.194;2023-04-03T16:18:51;11.80;80.90
5476;DHT22;2760;50.000;9.194;2023-04-03T16:21:20;11.30;79.60
5476;DHT22;2760;50.000;9.194;2023-04-03T16:23:47;9.30;79.30
5476;DHT22;2760;50.000;9.194;2023-04-03T16:26:14;9.20;79.40
5476;DHT22;2760;50.000;9.194;2023-04-03T16:28:44;7.00;76.30
5476;DHT22;2760;50.000;9.194;2023-04-03T16:31:11;11.10;80.40
5476;DHT22;2760;50.000;9.194;2023-04-03T16:33:38;9.20;79.00
5476;DHT22;2760;50.000;9.194;2023-04-03T16:36:06;9.30;79.80
5476;DHT22;2760;50.000;9.194;2023-04-03T16:38:33;9.10;78.50
5476;DHT22;2760;50.000;9.194;2023-04-03T16:41:00;9.60;78.40
5476;DHT22;2760;50.000;9.194;2023-04-03T16:43:30;9.20;78.40
5476;DHT22;2760;50.000;9.194;2023-04-03T16:45:59;9.10;79.40
5476;DHT22;2760;50.000;9.194;2023-04-03T16:48:27;8.80;79.20
5476;DHT22;2760;50.000;9.194;2023-04-03T16:50:55;8.90;79.80
5476;DHT22;2760;50.000;9.194;2023-04-03T16:53:22;11.00;80.90
5476;DHT22;2760;50.000;9.194;2023-04-03T16:55:49;10.50;80.90
5476;DHT22;2760;50.000;9.194;2023-04-03T16:58:17;8.80;80.60